sensor_id;sensor_type;location;lat;lon;timestamp;P1;durP1;ratioP1;P2;durP2;ratioP2
55148;SDS011;49539;48.160;11.530;2024-02-26T00:01:32;5.72;;;3.35;;
55148;SDS011;49539;48.160;11.530;2024-02-26T00:04:19;7.43;;;3.38;;
55148;SDS011;49539;48.160;11.530;2024-02-26T00:07:04;5.07;;;2.95;;
55148;SDS011;49539;48.160;11.530;2024-02-26T00:09:50;6.15;;;3.45;;
55148;SDS011;49539;48.160;11.530;2024-02-26T00:12:36;4.63;;;2.88;;
55148;SDS011;49539;48.160;11.530;2024-02-26T00:15:21;6.13;;;2.88;;
55148;SDS011;49539;48.160;11.530;2024-02-26T00:18:07;5.30;;;3.00;;
55148;SDS011;49539;48.160;11.530;2024-02-26T00:20:52;5.35;;;2.65;;
55148;SDS011;49539;48.160;11.530;2024-02-26T00:23:38;4.70;;;2.70;;
55148;SDS011;49539;48.160;11.530;2024-02-26T00:26:23;4.47;;;2.78;;
55148;SDS011;49539;48.160;11.530;2024-02-26T00:29:09;4.90;;;2.85;;
55148;SDS011;49539;48.160;11.530;2024-02-26T00:31:54;4.45;;;2.55;;
55148;SDS011;49539;48.160;11.530;2024-02-26T00:34:40;4.53;;;2.60;;
55148;SDS011;49539;48.160;11.530;2024-02-26T00:37:26;4.70;;;2.53;;
55148;SDS011;49539;48.160;11.530;2024-02-26T00:40:11;4.97;;;2.63;;
55148;SDS011;49539;48.160;11.530;2024-02-26T00:42:57;4.47;;;2.72;;
55148;SDS011;49539;48.160;11.530;2024-02-26T00:45:42;5.22;;;2.88;;
55148;SDS011;49539;48.160;11.530;2024-02-26T00:48:28;4.68;;;2.92;;
55148;SDS011;49539;48.160;11.530;2024-02-26T00:51:13;3.50;;;2.03;;
55148;SDS011;49539;48.160;11.530;2024-02-26T00:54:00;5.88;;;2.78;;
55148;SDS011;49539;48.160;11.530;2024-02-26T00:56:46;3.92;;;2.35;;
55148;SDS011;49539;48.160;11.530;2024-02-26T00:59:31;3.78;;;2.45;;
55148;SDS011;49539;48.160;11.530;2024-02-26T01:02:17;5.13;;;2.45;;
55148;SDS011;49539;48.160;11.530;2024-02-26T01:05:02;4.65;;;2.70;;
55148;SDS011;49539;48.160;11.530;2024-02-26T01:07:48;4.72;;;2.42;;
55148;SDS011;49539;48.160;11.530;2024-02-26T01:10:34;5.47;;;2.45;;
55148;SDS011;49539;48.160;11.530;2024-02-26T01:13:19;3.95;;;2.40;;
55148;SDS011;49539;48.160;11.530;2024-02-26T01:16:05;4.80;;;2.67;;
55148;SDS011;49539;48.160;11.530;2024-02-26T01:18:50;5.38;;;2.45;;
55148;SDS011;49539;48.160;11.530;2024-02-26T01:21:36;4.68;;;2.42;;
55148;SDS011;49539;48.160;11.530;2024-02-26T01:24:21;4.45;;;2.40;;
55148;SDS011;49539;48.160;11.530;2024-02-26T01:27:07;4.82;;;2.35;;
55148;SDS011;49539;48.160;11.530;2024-02-26T01:29:54;8.00;;;2.92;;
55148;SDS011;49539;48.160;11.530;2024-02-26T01:32:40;5.32;;;2.53;;
55148;SDS011;49539;48.160;11.530;2024-02-26T01:35:25;6.95;;;2.45;;
55148;SDS011;49539;48.160;11.530;2024-02-26T01:38:11;3.67;;;2.30;;
55148;SDS011;49539;48.160;11.530;2024-02-26T01:40:57;4.57;;;2.40;;
55148;SDS011;49539;48.160;11.530;2024-02-26T01:43:42;5.63;;;2.38;;
55148;SDS011;49539;48.160;11.530;2024-02-26T01:46:29;6.53;;;2.70;;
55148;SDS011;49539;48.160;11.530;2024-02-26T01:49:15;4.03;;;2.47;;
55148;SDS011;49539;48.160;11.530;2024-02-26T01:52:01;4.40;;;2.45;;
55148;SDS011;49539;48.160;11.530;2024-02-26T01:54:47;3.90;;;2.28;;
55148;SDS011;49539;48.160;11.530;2024-02-26T01:57:33;4.20;;;2.42;;
55148;SDS011;49539;48.160;11.530;2024-02-26T02:00:19;5.15;;;2.20;;
55148;SDS011;49539;48.160;11.530;2024-02-26T02:03:05;5.45;;;2.55;;
55148;SDS011;49539;48.160;11.530;2024-02-26T02:05:51;4.80;;;2.78;;
55148;SDS011;49539;48.160;11.530;2024-02-26T02:08:36;4.15;;;2.30;;
55148;SDS011;49539;48.160;11.530;2024-02-26T02:11:23;4.85;;;2.20;;
55148;SDS011;49539;48.160;11.530;2024-02-26T02:14:08;4.55;;;2.60;;
55148;SDS011;49539;48.160;11.530;2024-02-26T02:16:54;5.28;;;2.95;;
55148;SDS011;49539;48.160;11.530;2024-02-26T02:19:39;6.25;;;2.58;;
55148;SDS011;49539;48.160;11.530;2024-02-26T02:22:25;3.80;;;2.47;;
55148;SDS011;49539;48.160;11.530;2024-02-26T02:25:10;5.28;;;2.92;;
55148;SDS011;49539;48.160;11.530;2024-02-26T02:27:56;4.85;;;2.67;;
55148;SDS011;49539;48.160;11.530;2024-02-26T02:30:42;6.50;;;3.00;;
55148;SDS011;49539;48.160;11.530;2024-02-26T02:33:27;4.57;;;2.80;;
55148;SDS011;49539;48.160;11.530;2024-02-26T02:36:13;5.60;;;2.88;;
55148;SDS011;49539;48.160;11.530;2024-02-26T02:38:58;8.85;;;2.95;;
55148;SDS011;49539;48.160;11.530;2024-02-26T02:41:44;5.70;;;2.50;;
55148;SDS011;49539;48.160;11.530;2024-02-26T02:44:30;5.72;;;2.75;;
55148;SDS011;49539;48.160;11.530;2024-02-26T02:47:15;5.47;;;3.03;;
55148;SDS011;49539;48.160;11.530;2024-02-26T02:50:01;5.03;;;2.38;;
55148;SDS011;49539;48.160;11.530;2024-02-26T02:52:46;6.72;;;2.83;;
55148;SDS011;49539;48.160;11.530;2024-02-26T02:55:33;5.20;;;2.55;;
55148;SDS011;49539;48.160;11.530;2024-02-26T02:58:19;5.07;;;2.83;;
55148;SDS011;49539;48.160;11.530;2024-02-26T03:01:04;5.93;;;2.65;;
55148;SDS011;49539;48.160;11.530;2024-02-26T03:03:50;5.80;;;2.80;;
55148;SDS011;49539;48.160;11.530;2024-02-26T03:06:36;9.00;;;2.58;;
55148;SDS011;49539;48.160;11.530;2024-02-26T03:09:22;7.55;;;3.15;;
55148;SDS011;49539;48.160;11.530;2024-02-26T03:12:08;3.65;;;2.10;;
55148;SDS011;49539;48.160;11.530;2024-02-26T03:14:54;2.92;;;1.90;;
55148;SDS011;49539;48.160;11.530;2024-02-26T03:17:40;6.43;;;2.80;;
55148;SDS011;49539;48.160;11.530;2024-02-26T03:20:25;5.18;;;2.38;;
55148;SDS011;49539;48.160;11.530;2024-02-26T03:23:11;4.22;;;2.45;;
55148;SDS011;49539;48.160;11.530;2024-02-26T03:26:00;4.22;;;2.30;;
55148;SDS011;49539;48.160;11.530;2024-02-26T03:28:46;5.03;;;2.38;;
55148;SDS011;49539;48.160;11.530;2024-02-26T03:31:31;3.70;;;2.05;;
55148;SDS011;49539;48.160;11.530;2024-02-26T03:34:17;4.00;;;2.47;;
55148;SDS011;49539;48.160;11.530;2024-02-26T03:37:04;3.55;;;2.13;;
55148;SDS011;49539;48.160;11.530;2024-02-26T03:39:49;4.60;;;2.65;;
55148;SDS011;49539;48.160;11.530;2024-02-26T03:42:35;3.67;;;2.55;;
55148;SDS011;49539;48.160;11.530;2024-02-26T03:45:20;4.40;;;2.03;;
55148;SDS011;49539;48.160;11.530;2024-02-26T03:48:06;5.97;;;2.35;;
55148;SDS011;49539;48.160;11.530;2024-02-26T03:50:52;5.25;;;2.28;;
55148;SDS011;49539;48.160;11.530;2024-02-26T03:53:37;4.97;;;1.98;;
55148;SDS011;49539;48.160;11.530;2024-02-26T03:56:23;3.22;;;2.03;;
55148;SDS011;49539;48.160;11.530;2024-02-26T03:59:09;4.65;;;2.00;;
55148;SDS011;49539;48.160;11.530;2024-02-26T04:01:54;4.80;;;2.10;;
55148;SDS011;49539;48.160;11.530;2024-02-26T04:04:40;4.03;;;2.35;;
55148;SDS011;49539;48.160;11.530;2024-02-26T04:07:25;3.47;;;2.17;;
55148;SDS011;49539;48.160;11.530;2024-02-26T04:10:12;3.15;;;1.92;;
55148;SDS011;49539;48.160;11.530;2024-02-26T04:12:58;4.97;;;2.10;;
55148;SDS011;49539;48.160;11.530;2024-02-26T04:15:43;3.25;;;2.17;;
55148;SDS011;49539;48.160;11.530;2024-02-26T04:18:29;3.85;;;2.33;;
55148;SDS011;49539;48.160;11.530;2024-02-26T04:21:15;3.55;;;2.17;;
55148;SDS011;49539;48.160;11.530;2024-02-26T04:24:00;6.07;;;2.63;;
55148;SDS011;49539;48.160;11.530;2024-02-26T04:26:47;3.85;;;2.20;;
55148;SDS011;49539;48.160;11.530;2024-02-26T04:29:35;5.07;;;2.30;;
55148;SDS011;49539;48.160;11.530;2024-02-26T04:32:20;4.07;;;2.10;;
55148;SDS011;49539;48.160;11.530;2024-02-26T04:35:06;4.50;;;2.28;;
55148;SDS011;49539;48.160;11.530;2024-02-26T04:37:51;5.38;;;2.20;;
55148;SDS011;49539;48.160;11.530;2024-02-26T04:40:37;4.65;;;2.78;;
55148;SDS011;49539;48.160;11.530;2024-02-26T04:43:23;4.95;;;2.13;;
55148;SDS011;49539;48.160;11.530;2024-02-26T04:46:09;3.53;;;2.38;;
55148;SDS011;49539;48.160;11.530;2024-02-26T04:48:54;4.32;;;2.05;;
55148;SDS011;49539;48.160;11.530;2024-02-26T04:51:40;5.50;;;2.72;;
55148;SDS011;49539;48.160;11.530;2024-02-26T04:54:25;5.57;;;2.28;;
55148;SDS011;49539;48.160;11.530;2024-02-26T04:57:11;4.05;;;2.10;;
55148;SDS011;49539;48.160;11.530;2024-02-26T04:59:56;6.03;;;2.40;;
55148;SDS011;49539;48.160;11.530;2024-02-26T05:02:42;3.53;;;2.03;;
55148;SDS011;49539;48.160;11.530;2024-02-26T05:05:28;4.43;;;2.30;;
55148;SDS011;49539;48.160;11.530;2024-02-26T05:08:13;5.65;;;1.90;;
55148;SDS011;49539;48.160;11.530;2024-02-26T05:10:59;5.15;;;2.08;;
55148;SDS011;49539;48.160;11.530;2024-02-26T05:13:45;4.38;;;2.35;;
55148;SDS011;49539;48.160;11.530;2024-02-26T05:16:31;4.00;;;2.20;;
55148;SDS011;49539;48.160;11.530;2024-02-26T05:19:16;3.05;;;2.00;;
55148;SDS011;49539;48.160;11.530;2024-02-26T05:22:02;3.75;;;2.30;;
55148;SDS011;49539;48.160;11.530;2024-02-26T05:24:48;3.78;;;2.03;;
55148;SDS011;49539;48.160;11.530;2024-02-26T05:27:33;4.80;;;2.28;;
55148;SDS011;49539;48.160;11.530;2024-02-26T05:30:19;4.22;;;2.13;;
55148;SDS011;49539;48.160;11.530;2024-02-26T05:33:04;3.67;;;2.05;;
55148;SDS011;49539;48.160;11.530;2024-02-26T05:35:50;4.63;;;2.33;;
55148;SDS011;49539;48.160;11.530;2024-02-26T05:38:35;2.95;;;1.98;;
55148;SDS011;49539;48.160;11.530;2024-02-26T05:41:21;5.05;;;2.65;;
55148;SDS011;49539;48.160;11.530;2024-02-26T05:44:11;3.85;;;2.15;;
55148;SDS011;49539;48.160;11.530;2024-02-26T05:46:57;4.90;;;2.40;;
55148;SDS011;49539;48.160;11.530;2024-02-26T05:49:43;5.35;;;2.50;;
55148;SDS011;49539;48.160;11.530;2024-02-26T05:52:28;5.47;;;2.53;;
55148;SDS011;49539;48.160;11.530;2024-02-26T05:55:15;3.55;;;2.15;;
55148;SDS011;49539;48.160;11.530;2024-02-26T05:58:01;7.10;;;2.40;;
55148;SDS011;49539;48.160;11.530;2024-02-26T06:00:46;5.05;;;2.53;;
55148;SDS011;49539;48.160;11.530;2024-02-26T06:03:32;3.38;;;2.05;;
55148;SDS011;49539;48.160;11.530;2024-02-26T06:06:17;6.43;;;2.35;;
55148;SDS011;49539;48.160;11.530;2024-02-26T06:09:03;4.50;;;2.42;;
55148;SDS011;49539;48.160;11.530;2024-02-26T06:11:50;4.25;;;2.50;;
55148;SDS011;49539;48.160;11.530;2024-02-26T06:14:36;4.13;;;2.22;;
55148;SDS011;49539;48.160;11.530;2024-02-26T06:17:21;4.28;;;2.05;;
55148;SDS011;49539;48.160;11.530;2024-02-26T06:20:07;6.65;;;2.40;;
55148;SDS011;49539;48.160;11.530;2024-02-26T06:22:57;3.28;;;1.88;;
55148;SDS011;49539;48.160;11.530;2024-02-26T06:25:43;4.05;;;2.22;;
55148;SDS011;49539;48.160;11.530;2024-02-26T06:28:29;4.82;;;1.92;;
55148;SDS011;49539;48.160;11.530;2024-02-26T06:31:15;5.13;;;2.75;;
55148;SDS011;49539;48.160;11.530;2024-02-26T06:34:01;5.55;;;2.10;;
55148;SDS011;49539;48.160;11.530;2024-02-26T06:36:47;4.35;;;2.35;;
55148;SDS011;49539;48.160;11.530;2024-02-26T06:39:32;5.35;;;2.65;;
55148;SDS011;49539;48.160;11.530;2024-02-26T06:42:18;7.25;;;2.55;;
55148;SDS011;49539;48.160;11.530;2024-02-26T06:45:04;5.38;;;2.63;;
55148;SDS011;49539;48.160;11.530;2024-02-26T06:47:49;5.68;;;2.22;;
55148;SDS011;49539;48.160;11.530;2024-02-26T06:50:35;8.52;;;2.80;;
55148;SDS011;49539;48.160;11.530;2024-02-26T06:53:21;6.97;;;3.13;;
55148;SDS011;49539;48.160;11.530;2024-02-26T06:56:07;6.30;;;2.67;;
55148;SDS011;49539;48.160;11.530;2024-02-26T06:58:52;6.53;;;2.28;;
55148;SDS011;49539;48.160;11.530;2024-02-26T07:01:40;5.43;;;2.63;;
55148;SDS011;49539;48.160;11.530;2024-02-26T07:04:25;5.13;;;2.42;;
55148;SDS011;49539;48.160;11.530;2024-02-26T07:07:11;5.20;;;2.58;;
55148;SDS011;49539;48.160;11.530;2024-02-26T07:09:57;7.40;;;3.17;;
55148;SDS011;49539;48.160;11.530;2024-02-26T07:12:44;7.20;;;2.85;;
55148;SDS011;49539;48.160;11.530;2024-02-26T07:15:29;10.07;;;3.83;;
55148;SDS011;49539;48.160;11.530;2024-02-26T07:18:15;7.45;;;3.25;;
55148;SDS011;49539;48.160;11.530;2024-02-26T07:21:03;7.43;;;3.38;;
55148;SDS011;49539;48.160;11.530;2024-02-26T07:23:49;8.55;;;3.78;;
55148;SDS011;49539;48.160;11.530;2024-02-26T07:26:35;8.07;;;3.65;;
55148;SDS011;49539;48.160;11.530;2024-02-26T07:29:20;6.28;;;2.90;;
55148;SDS011;49539;48.160;11.530;2024-02-26T07:32:06;10.68;;;3.38;;
55148;SDS011;49539;48.160;11.530;2024-02-26T07:34:52;5.60;;;2.58;;
55148;SDS011;49539;48.160;11.530;2024-02-26T07:37:37;5.78;;;3.05;;
55148;SDS011;49539;48.160;11.530;2024-02-26T07:40:23;9.15;;;2.97;;
55148;SDS011;49539;48.160;11.530;2024-02-26T07:43:08;11.45;;;3.22;;
55148;SDS011;49539;48.160;11.530;2024-02-26T07:45:54;6.43;;;2.58;;
55148;SDS011;49539;48.160;11.530;2024-02-26T07:48:40;18.10;;;2.60;;
55148;SDS011;49539;48.160;11.530;2024-02-26T07:51:26;5.45;;;2.63;;
55148;SDS011;49539;48.160;11.530;2024-02-26T07:54:12;6.80;;;3.10;;
55148;SDS011;49539;48.160;11.530;2024-02-26T07:56:57;9.07;;;2.78;;
55148;SDS011;49539;48.160;11.530;2024-02-26T07:59:43;7.82;;;2.72;;
55148;SDS011;49539;48.160;11.530;2024-02-26T08:02:30;9.25;;;2.75;;
55148;SDS011;49539;48.160;11.530;2024-02-26T08:05:15;10.45;;;2.72;;
55148;SDS011;49539;48.160;11.530;2024-02-26T08:08:01;9.52;;;3.22;;
55148;SDS011;49539;48.160;11.530;2024-02-26T08:10:46;12.85;;;3.00;;
55148;SDS011;49539;48.160;11.530;2024-02-26T08:13:32;10.93;;;3.65;;
55148;SDS011;49539;48.160;11.530;2024-02-26T08:16:17;8.80;;;2.88;;
55148;SDS011;49539;48.160;11.530;2024-02-26T08:19:03;7.68;;;2.72;;
55148;SDS011;49539;48.160;11.530;2024-02-26T08:21:49;9.32;;;3.65;;
55148;SDS011;49539;48.160;11.530;2024-02-26T08:24:34;12.15;;;2.97;;
55148;SDS011;49539;48.160;11.530;2024-02-26T08:27:20;7.03;;;2.80;;
55148;SDS011;49539;48.160;11.530;2024-02-26T08:30:06;12.57;;;3.30;;
55148;SDS011;49539;48.160;11.530;2024-02-26T08:32:52;11.20;;;3.45;;
55148;SDS011;49539;48.160;11.530;2024-02-26T08:35:38;22.60;;;3.45;;
55148;SDS011;49539;48.160;11.530;2024-02-26T08:38:24;5.40;;;2.67;;
55148;SDS011;49539;48.160;11.530;2024-02-26T08:41:10;7.60;;;2.88;;
55148;SDS011;49539;48.160;11.530;2024-02-26T08:43:55;6.68;;;2.60;;
55148;SDS011;49539;48.160;11.530;2024-02-26T08:46:41;6.10;;;2.47;;
55148;SDS011;49539;48.160;11.530;2024-02-26T08:49:27;8.38;;;3.55;;
55148;SDS011;49539;48.160;11.530;2024-02-26T08:52:12;13.68;;;3.17;;
55148;SDS011;49539;48.160;11.530;2024-02-26T08:54:59;5.70;;;2.60;;
55148;SDS011;49539;48.160;11.530;2024-02-26T08:57:44;10.40;;;2.90;;
55148;SDS011;49539;48.160;11.530;2024-02-26T09:00:30;11.85;;;2.67;;
55148;SDS011;49539;48.160;11.530;2024-02-26T09:03:16;8.27;;;3.70;;
55148;SDS011;49539;48.160;11.530;2024-02-26T09:06:01;5.72;;;2.75;;
55148;SDS011;49539;48.160;11.530;2024-02-26T09:08:47;8.75;;;3.40;;
55148;SDS011;49539;48.160;11.530;2024-02-26T09:11:33;5.93;;;2.72;;
55148;SDS011;49539;48.160;11.530;2024-02-26T09:14:18;7.22;;;2.20;;
55148;SDS011;49539;48.160;11.530;2024-02-26T09:17:04;6.18;;;2.83;;
55148;SDS011;49539;48.160;11.530;2024-02-26T09:19:51;6.03;;;2.30;;
55148;SDS011;49539;48.160;11.530;2024-02-26T09:22:36;4.70;;;1.92;;
55148;SDS011;49539;48.160;11.530;2024-02-26T09:25:23;7.05;;;2.70;;
55148;SDS011;49539;48.160;11.530;2024-02-26T09:28:09;5.55;;;3.03;;
55148;SDS011;49539;48.160;11.530;2024-02-26T09:30:54;5.70;;;2.33;;
55148;SDS011;49539;48.160;11.530;2024-02-26T09:33:40;6.28;;;2.35;;
55148;SDS011;49539;48.160;11.530;2024-02-26T09:36:25;5.20;;;2.78;;
55148;SDS011;49539;48.160;11.530;2024-02-26T09:39:11;4.25;;;2.25;;
55148;SDS011;49539;48.160;11.530;2024-02-26T09:41:57;21.50;;;2.97;;
55148;SDS011;49539;48.160;11.530;2024-02-26T09:44:45;4.78;;;2.53;;
55148;SDS011;49539;48.160;11.530;2024-02-26T09:47:31;4.57;;;1.77;;
55148;SDS011;49539;48.160;11.530;2024-02-26T09:50:17;5.28;;;2.45;;
55148;SDS011;49539;48.160;11.530;2024-02-26T09:53:03;8.70;;;2.40;;
55148;SDS011;49539;48.160;11.530;2024-02-26T09:55:50;4.05;;;2.03;;
55148;SDS011;49539;48.160;11.530;2024-02-26T09:58:36;5.90;;;1.80;;
55148;SDS011;49539;48.160;11.530;2024-02-26T10:01:22;8.77;;;1.77;;
55148;SDS011;49539;48.160;11.530;2024-02-26T10:04:10;2.35;;;1.30;;
55148;SDS011;49539;48.160;11.530;2024-02-26T10:06:56;4.47;;;2.17;;
55148;SDS011;49539;48.160;11.530;2024-02-26T10:09:45;4.22;;;1.50;;
55148;SDS011;49539;48.160;11.530;2024-02-26T10:12:30;4.35;;;1.95;;
55148;SDS011;49539;48.160;11.530;2024-02-26T10:15:16;4.07;;;1.80;;
55148;SDS011;49539;48.160;11.530;2024-02-26T10:18:05;4.20;;;1.75;;
55148;SDS011;49539;48.160;11.530;2024-02-26T10:21:00;3.22;;;1.80;;
55148;SDS011;49539;48.160;11.530;2024-02-26T10:23:46;5.35;;;1.42;;
55148;SDS011;49539;48.160;11.530;2024-02-26T10:26:33;3.15;;;1.27;;
55148;SDS011;49539;48.160;11.530;2024-02-26T10:29:19;3.63;;;1.20;;
55148;SDS011;49539;48.160;11.530;2024-02-26T10:32:05;3.22;;;1.20;;
55148;SDS011;49539;48.160;11.530;2024-02-26T10:34:55;3.60;;;1.42;;
55148;SDS011;49539;48.160;11.530;2024-02-26T10:37:40;2.35;;;1.45;;
55148;SDS011;49539;48.160;11.530;2024-02-26T10:40:26;1.88;;;1.30;;
55148;SDS011;49539;48.160;11.530;2024-02-26T10:43:12;4.78;;;1.30;;
55148;SDS011;49539;48.160;11.530;2024-02-26T10:46:00;5.13;;;1.65;;
55148;SDS011;49539;48.160;11.530;2024-02-26T10:48:51;4.05;;;1.40;;
55148;SDS011;49539;48.160;11.530;2024-02-26T10:51:37;5.05;;;1.70;;
55148;SDS011;49539;48.160;11.530;2024-02-26T10:54:23;3.25;;;1.63;;
55148;SDS011;49539;48.160;11.530;2024-02-26T10:57:10;8.10;;;2.00;;
55148;SDS011;49539;48.160;11.530;2024-02-26T10:59:56;7.18;;;1.60;;
55148;SDS011;49539;48.160;11.530;2024-02-26T11:02:42;3.38;;;1.33;;
55148;SDS011;49539;48.160;11.530;2024-02-26T11:05:29;4.78;;;1.45;;
55148;SDS011;49539;48.160;11.530;2024-02-26T11:08:18;4.30;;;1.17;;
55148;SDS011;49539;48.160;11.530;2024-02-26T11:11:04;8.65;;;1.17;;
55148;SDS011;49539;48.160;11.530;2024-02-26T11:13:50;2.38;;;0.90;;
55148;SDS011;49539;48.160;11.530;2024-02-26T11:16:36;2.75;;;1.25;;
55148;SDS011;49539;48.160;11.530;2024-02-26T11:19:23;2.35;;;0.95;;
55148;SDS011;49539;48.160;11.530;2024-02-26T11:22:09;3.05;;;1.50;;
55148;SDS011;49539;48.160;11.530;2024-02-26T11:24:56;1.55;;;0.85;;
55148;SDS011;49539;48.160;11.530;2024-02-26T11:27:43;2.00;;;1.10;;
55148;SDS011;49539;48.160;11.530;2024-02-26T11:30:30;2.80;;;1.10;;
55148;SDS011;49539;48.160;11.530;2024-02-26T11:33:16;2.83;;;1.25;;
55148;SDS011;49539;48.160;11.530;2024-02-26T11:36:02;2.70;;;0.80;;
55148;SDS011;49539;48.160;11.530;2024-02-26T11:38:53;3.05;;;0.90;;
55148;SDS011;49539;48.160;11.530;2024-02-26T11:41:40;2.13;;;1.10;;
55148;SDS011;49539;48.160;11.530;2024-02-26T11:44:29;3.20;;;0.95;;
55148;SDS011;49539;48.160;11.530;2024-02-26T11:47:22;1.52;;;0.80;;
55148;SDS011;49539;48.160;11.530;2024-02-26T11:51:08;3.75;;;1.27;;
55148;SDS011;49539;48.160;11.530;2024-02-26T11:53:26;1.92;;;1.00;;
55148;SDS011;49539;48.160;11.530;2024-02-26T11:59:01;1.35;;;0.60;;
55148;SDS011;49539;48.160;11.530;2024-02-26T12:01:47;1.90;;;0.95;;
55148;SDS011;49539;48.160;11.530;2024-02-26T12:04:33;2.13;;;0.77;;
55148;SDS011;49539;48.160;11.530;2024-02-26T12:07:18;1.85;;;1.10;;
55148;SDS011;49539;48.160;11.530;2024-02-26T12:13:21;2.60;;;1.00;;
55148;SDS011;49539;48.160;11.530;2024-02-26T12:16:21;0.95;;;0.68;;
55148;SDS011;49539;48.160;11.530;2024-02-26T12:22:06;2.45;;;0.70;;
55148;SDS011;49539;48.160;11.530;2024-02-26T12:25:01;2.55;;;0.88;;
55148;SDS011;49539;48.160;11.530;2024-02-26T12:27:48;3.90;;;1.00;;
55148;SDS011;49539;48.160;11.530;2024-02-26T12:30:34;1.48;;;0.70;;
55148;SDS011;49539;48.160;11.530;2024-02-26T12:33:20;1.13;;;0.60;;
55148;SDS011;49539;48.160;11.530;2024-02-26T12:36:05;1.10;;;0.70;;
55148;SDS011;49539;48.160;11.530;2024-02-26T12:38:51;4.75;;;0.90;;
55148;SDS011;49539;48.160;11.530;2024-02-26T12:41:37;2.50;;;0.63;;
55148;SDS011;49539;48.160;11.530;2024-02-26T12:44:24;2.60;;;0.90;;
55148;SDS011;49539;48.160;11.530;2024-02-26T12:47:11;1.88;;;1.02;;
55148;SDS011;49539;48.160;11.530;2024-02-26T12:50:02;3.35;;;1.15;;
55148;SDS011;49539;48.160;11.530;2024-02-26T12:52:49;3.80;;;1.15;;
55148;SDS011;49539;48.160;11.530;2024-02-26T12:55:36;2.50;;;1.00;;
55148;SDS011;49539;48.160;11.530;2024-02-26T12:58:24;1.85;;;0.95;;
55148;SDS011;49539;48.160;11.530;2024-02-26T13:01:14;6.05;;;1.25;;
55148;SDS011;49539;48.160;11.530;2024-02-26T13:04:00;2.38;;;1.00;;
55148;SDS011;49539;48.160;11.530;2024-02-26T13:06:51;2.97;;;0.93;;
55148;SDS011;49539;48.160;11.530;2024-02-26T13:09:37;2.05;;;0.90;;
55148;SDS011;49539;48.160;11.530;2024-02-26T13:12:23;0.70;;;0.60;;
55148;SDS011;49539;48.160;11.530;2024-02-26T13:15:09;2.50;;;1.10;;
55148;SDS011;49539;48.160;11.530;2024-02-26T13:17:59;2.38;;;0.90;;
55148;SDS011;49539;48.160;11.530;2024-02-26T13:20:54;2.30;;;0.90;;
55148;SDS011;49539;48.160;11.530;2024-02-26T13:23:39;1.52;;;0.63;;
55148;SDS011;49539;48.160;11.530;2024-02-26T13:26:25;2.03;;;0.95;;
55148;SDS011;49539;48.160;11.530;2024-02-26T13:29:20;0.88;;;0.77;;
55148;SDS011;49539;48.160;11.530;2024-02-26T13:32:06;1.52;;;0.70;;
55148;SDS011;49539;48.160;11.530;2024-02-26T13:34:52;2.53;;;1.15;;
55148;SDS011;49539;48.160;11.530;2024-02-26T13:37:49;1.80;;;0.73;;
55148;SDS011;49539;48.160;11.530;2024-02-26T13:40:34;5.90;;;0.90;;
55148;SDS011;49539;48.160;11.530;2024-02-26T13:43:20;0.98;;;0.60;;
55148;SDS011;49539;48.160;11.530;2024-02-26T13:46:06;1.13;;;0.63;;
55148;SDS011;49539;48.160;11.530;2024-02-26T13:48:53;3.42;;;1.00;;
55148;SDS011;49539;48.160;11.530;2024-02-26T13:51:40;2.35;;;0.88;;
55148;SDS011;49539;48.160;11.530;2024-02-26T13:54:26;1.80;;;0.60;;
55148;SDS011;49539;48.160;11.530;2024-02-26T13:57:12;1.80;;;0.70;;
55148;SDS011;49539;48.160;11.530;2024-02-26T13:59:57;2.63;;;0.90;;
55148;SDS011;49539;48.160;11.530;2024-02-26T14:02:43;0.35;;;0.30;;
55148;SDS011;49539;48.160;11.530;2024-02-26T14:05:28;3.58;;;0.98;;
55148;SDS011;49539;48.160;11.530;2024-02-26T14:08:15;0.88;;;0.50;;
55148;SDS011;49539;48.160;11.530;2024-02-26T14:11:01;4.30;;;0.82;;
55148;SDS011;49539;48.160;11.530;2024-02-26T14:13:47;2.90;;;0.80;;
55148;SDS011;49539;48.160;11.530;2024-02-26T14:16:33;1.65;;;0.90;;
55148;SDS011;49539;48.160;11.530;2024-02-26T14:19:18;1.98;;;0.63;;
55148;SDS011;49539;48.160;11.530;2024-02-26T14:22:04;2.53;;;1.02;;
55148;SDS011;49539;48.160;11.530;2024-02-26T14:24:49;1.65;;;0.90;;
55148;SDS011;49539;48.160;11.530;2024-02-26T14:27:35;1.35;;;0.70;;
55148;SDS011;49539;48.160;11.530;2024-02-26T14:30:21;2.28;;;1.00;;
55148;SDS011;49539;48.160;11.530;2024-02-26T14:33:07;4.03;;;1.08;;
55148;SDS011;49539;48.160;11.530;2024-02-26T14:35:54;3.72;;;1.52;;
55148;SDS011;49539;48.160;11.530;2024-02-26T14:38:40;3.38;;;0.98;;
55148;SDS011;49539;48.160;11.530;2024-02-26T14:41:25;5.85;;;1.85;;
55148;SDS011;49539;48.160;11.530;2024-02-26T14:44:11;2.78;;;1.40;;
55148;SDS011;49539;48.160;11.530;2024-02-26T14:46:58;3.45;;;1.02;;
55148;SDS011;49539;48.160;11.530;2024-02-26T14:49:43;2.15;;;1.10;;
55148;SDS011;49539;48.160;11.530;2024-02-26T14:52:30;2.50;;;1.02;;
55148;SDS011;49539;48.160;11.530;2024-02-26T14:55:16;4.40;;;1.00;;
55148;SDS011;49539;48.160;11.530;2024-02-26T14:58:03;2.63;;;1.00;;
55148;SDS011;49539;48.160;11.530;2024-02-26T15:00:49;4.10;;;1.60;;
55148;SDS011;49539;48.160;11.530;2024-02-26T15:03:34;2.95;;;1.13;;
55148;SDS011;49539;48.160;11.530;2024-02-26T15:06:21;5.10;;;1.33;;
55148;SDS011;49539;48.160;11.530;2024-02-26T15:09:07;3.45;;;1.52;;
55148;SDS011;49539;48.160;11.530;2024-02-26T15:11:52;5.78;;;1.40;;
55148;SDS011;49539;48.160;11.530;2024-02-26T15:14:38;4.47;;;1.50;;
55148;SDS011;49539;48.160;11.530;2024-02-26T15:17:24;2.72;;;1.40;;
55148;SDS011;49539;48.160;11.530;2024-02-26T15:20:13;3.08;;;1.20;;
55148;SDS011;49539;48.160;11.530;2024-02-26T15:22:58;5.03;;;1.63;;
55148;SDS011;49539;48.160;11.530;2024-02-26T15:25:45;1.52;;;1.05;;
55148;SDS011;49539;48.160;11.530;2024-02-26T15:28:31;7.97;;;1.40;;
55148;SDS011;49539;48.160;11.530;2024-02-26T15:31:16;3.08;;;1.38;;
55148;SDS011;49539;48.160;11.530;2024-02-26T15:34:02;3.63;;;1.10;;
55148;SDS011;49539;48.160;11.530;2024-02-26T15:36:48;2.58;;;1.20;;
55148;SDS011;49539;48.160;11.530;2024-02-26T15:39:33;2.35;;;1.30;;
55148;SDS011;49539;48.160;11.530;2024-02-26T15:42:20;6.45;;;1.58;;
55148;SDS011;49539;48.160;11.530;2024-02-26T15:45:06;2.65;;;1.05;;
55148;SDS011;49539;48.160;11.530;2024-02-26T15:47:52;1.65;;;1.13;;
55148;SDS011;49539;48.160;11.530;2024-02-26T15:50:38;2.95;;;1.13;;
55148;SDS011;49539;48.160;11.530;2024-02-26T15:53:26;1.77;;;1.00;;
55148;SDS011;49539;48.160;11.530;2024-02-26T15:56:12;1.65;;;1.00;;
55148;SDS011;49539;48.160;11.530;2024-02-26T15:58:57;1.55;;;0.80;;
55148;SDS011;49539;48.160;11.530;2024-02-26T16:01:43;1.52;;;1.08;;
55148;SDS011;49539;48.160;11.530;2024-02-26T16:04:29;2.20;;;1.15;;
55148;SDS011;49539;48.160;11.530;2024-02-26T16:07:24;3.63;;;1.15;;
55148;SDS011;49539;48.160;11.530;2024-02-26T16:10:11;3.00;;;0.95;;
55148;SDS011;49539;48.160;11.530;2024-02-26T16:12:59;2.58;;;0.90;;
55148;SDS011;49539;48.160;11.530;2024-02-26T16:15:47;2.08;;;0.95;;
55148;SDS011;49539;48.160;11.530;2024-02-26T16:18:34;3.03;;;0.90;;
55148;SDS011;49539;48.160;11.530;2024-02-26T16:21:20;2.95;;;1.08;;
55148;SDS011;49539;48.160;11.530;2024-02-26T16:24:06;3.05;;;1.30;;
55148;SDS011;49539;48.160;11.530;2024-02-26T16:26:51;2.28;;;1.08;;
55148;SDS011;49539;48.160;11.530;2024-02-26T16:29:37;2.83;;;1.20;;
55148;SDS011;49539;48.160;11.530;2024-02-26T16:32:23;2.45;;;1.30;;
55148;SDS011;49539;48.160;11.530;2024-02-26T16:35:09;2.60;;;1.05;;